createdAt,value
2022-10-16T00:01:47.060Z,100767.06
2022-10-16T00:04:15.851Z,100746.69
2022-10-16T00:06:44.231Z,100756.25
2022-10-16T00:09:12.576Z,100744.13
2022-10-16T00:11:43.070Z,100754.63
2022-10-16T00:14:15.692Z,100760.66
2022-10-16T00:16:45.623Z,100751.28
2022-10-16T00:19:14.369Z,100750.50
2022-10-16T00:21:43.248Z,100763.91
2022-10-16T00:24:12.330Z,100737.97
2022-10-16T00:26:41.560Z,100761.06
2022-10-16T00:29:11.268Z,100653.06
2022-10-16T00:31:39.566Z,100753.81
2022-10-16T00:34:09.244Z,100744.66
2022-10-16T00:36:37.556Z,100730.63
2022-10-16T00:39:06.273Z,100625.84
2022-10-16T00:41:35.304Z,100736.00
2022-10-16T00:44:06.127Z,100735.38
2022-10-16T00:46:40.591Z,100720.44
2022-10-16T00:49:14.616Z,100733.69
2022-10-16T00:51:47.645Z,100721.06
2022-10-16T00:54:20.261Z,100708.28
2022-10-16T00:56:49.279Z,100731.94
2022-10-16T00:59:20.699Z,100749.53
2022-10-16T01:01:49.119Z,100765.56
2022-10-16T01:04:18.886Z,100766.59
2022-10-16T01:06:57.197Z,100734.91
2022-10-16T01:09:33.192Z,100741.91
2022-10-16T01:12:11.463Z,100748.16
2022-10-16T01:14:48.351Z,100767.94
2022-10-16T01:17:21.338Z,100747.25
2022-10-16T01:20:08.046Z,100745.59
2022-10-16T01:22:49.399Z,100741.50
2022-10-16T01:25:27.826Z,100746.50
2022-10-16T01:27:58.250Z,100754.59
2022-10-16T01:30:30.319Z,100747.44
2022-10-16T01:33:04.627Z,100749.44
2022-10-16T01:35:37.873Z,100754.06
2022-10-16T01:38:11.097Z,100752.94
2022-10-16T01:40:43.898Z,100754.97
2022-10-16T01:43:16.700Z,100759.53
2022-10-16T01:45:47.222Z,100752.41
2022-10-16T01:48:20.226Z,100737.72
2022-10-16T01:50:56.893Z,100729.56
2022-10-16T01:53:26.849Z,100761.06
2022-10-16T01:55:58.095Z,100765.63
2022-10-16T01:58:31.838Z,100749.13
2022-10-16T02:01:00.487Z,100757.06
2022-10-16T02:03:29.042Z,100756.13
2022-10-16T02:06:00.248Z,100772.19
2022-10-16T02:08:32.002Z,100774.88
2022-10-16T02:11:02.724Z,100752.19
2022-10-16T02:13:38.121Z,100780.09
2022-10-16T02:16:07.525Z,100755.47
2022-10-16T02:18:36.039Z,100764.97
2022-10-16T02:21:12.863Z,100765.91
2022-10-16T02:23:48.613Z,100708.91
2022-10-16T02:26:23.226Z,100762.34
2022-10-16T02:28:58.951Z,100643.53
2022-10-16T02:31:30.518Z,100772.97
2022-10-16T02:34:01.537Z,100767.81
2022-10-16T02:36:30.321Z,100761.81
2022-10-16T02:38:58.805Z,100766.97
2022-10-16T02:41:27.718Z,100758.97
2022-10-16T02:43:57.365Z,100772.50
2022-10-16T02:46:25.704Z,100779.66
2022-10-16T02:48:53.963Z,100792.97
2022-10-16T02:51:22.315Z,100795.66
2022-10-16T02:53:50.603Z,100778.66
2022-10-16T02:58:52.172Z,100776.13
2022-10-16T03:01:21.935Z,100777.66
2022-10-16T03:03:50.592Z,100771.75
2022-10-16T03:06:18.846Z,100782.16
2022-10-16T03:08:47.173Z,100781.25
2022-10-16T03:11:15.370Z,100767.88
2022-10-16T03:13:43.740Z,100793.56
2022-10-16T03:16:12.210Z,100797.06
2022-10-16T03:18:41.854Z,100785.75
2022-10-16T03:21:10.296Z,100804.13
2022-10-16T03:23:38.585Z,100802.22
2022-10-16T03:26:07.202Z,100789.25
2022-10-16T03:28:35.607Z,100803.28
2022-10-16T03:31:03.889Z,100797.06
2022-10-16T03:33:32.287Z,100807.59
2022-10-16T03:36:02.090Z,100811.00
2022-10-16T03:38:30.520Z,100809.22
2022-10-16T03:40:58.781Z,100819.75
2022-10-16T03:43:27.088Z,100810.91
2022-10-16T03:45:55.420Z,100819.69
2022-10-16T03:48:23.831Z,100737.56
2022-10-16T03:50:52.704Z,100821.69
2022-10-16T03:53:22.643Z,100819.13
2022-10-16T03:55:50.924Z,100831.44
2022-10-16T03:58:21.010Z,100828.03
2022-10-16T04:00:49.568Z,100835.19
2022-10-16T04:03:19.782Z,100830.75
2022-10-16T04:05:48.187Z,100844.03
2022-10-16T04:08:16.479Z,100848.63
2022-10-16T04:10:46.432Z,100842.25
2022-10-16T04:13:14.912Z,100841.38
2022-10-16T04:15:43.722Z,100839.66
2022-10-16T04:18:11.979Z,100856.47
2022-10-16T04:20:40.339Z,100869.78
2022-10-16T04:23:08.736Z,100855.84
2022-10-16T04:25:37.123Z,100871.59
2022-10-16T04:28:06.871Z,100862.94
2022-10-16T04:30:35.556Z,100849.69
2022-10-16T04:33:04.124Z,100867.34
2022-10-16T04:35:32.544Z,100842.06
2022-10-16T04:38:01.007Z,100879.94
2022-10-16T04:40:29.250Z,100885.91
2022-10-16T04:42:57.562Z,100898.38
2022-10-16T04:45:27.364Z,100908.19
2022-10-16T04:47:58.882Z,100901.41
2022-10-16T04:50:27.408Z,100909.53
2022-10-16T04:53:08.099Z,100916.50
2022-10-16T04:55:37.202Z,100886.78
2022-10-16T04:58:06.005Z,100916.56
2022-10-16T05:00:35.806Z,100878.63
2022-10-16T05:03:07.148Z,100882.28
2022-10-16T05:05:35.984Z,100929.69
2022-10-16T05:08:05.010Z,100918.28
2022-10-16T05:10:33.285Z,100939.47
2022-10-16T05:13:01.550Z,100939.38
2022-10-16T05:15:29.965Z,100942.06
2022-10-16T05:17:59.551Z,100937.59
2022-10-16T05:20:28.116Z,100928.16
2022-10-16T05:22:56.439Z,100938.94
2022-10-16T05:25:24.731Z,100959.09
2022-10-16T05:27:53.021Z,100960.03
2022-10-16T05:30:21.325Z,100959.19
2022-10-16T05:32:50.370Z,100931.09
2022-10-16T05:35:21.547Z,100945.28
2022-10-16T05:37:50.014Z,100957.41
2022-10-16T05:40:19.012Z,100948.63
2022-10-16T05:42:47.516Z,100948.59
2022-10-16T05:45:15.772Z,100958.59
2022-10-16T05:47:44.101Z,100958.50
2022-10-16T05:50:12.429Z,100958.75
2022-10-16T05:52:42.116Z,100960.72
2022-10-16T05:55:10.869Z,100964.50
2022-10-16T05:57:39.570Z,100956.47
2022-10-16T06:00:09.672Z,100857.59
2022-10-16T06:02:43.591Z,100967.13
2022-10-16T06:05:11.930Z,100970.53
2022-10-16T06:07:41.600Z,100974.28
2022-10-16T06:10:10.981Z,100983.09
2022-10-16T06:12:39.460Z,100974.09
2022-10-16T06:15:08.675Z,100993.00
2022-10-16T06:17:37.042Z,100989.41
2022-10-16T06:20:06.073Z,100993.00
2022-10-16T06:22:34.437Z,100994.69
2022-10-16T06:25:04.495Z,100986.69
2022-10-16T06:27:32.834Z,100928.94
2022-10-16T06:30:01.104Z,100998.28
2022-10-16T06:32:29.981Z,101010.78
2022-10-16T06:34:58.210Z,101002.97
2022-10-16T06:37:27.173Z,100996.13
2022-10-16T06:39:55.908Z,101017.09
2022-10-16T06:42:25.945Z,101015.28
2022-10-16T06:44:54.531Z,101031.28
2022-10-16T06:47:22.816Z,101023.19
2022-10-16T06:49:54.227Z,101030.19
2022-10-16T06:52:23.125Z,101026.59
2022-10-16T06:54:52.265Z,101040.06
2022-10-16T06:57:20.661Z,101019.94
2022-10-16T06:59:55.113Z,101052.59
2022-10-16T07:02:23.933Z,101055.06
2022-10-16T07:04:52.761Z,101056.00
2022-10-16T07:07:21.129Z,101069.00
2022-10-16T07:09:49.382Z,101081.72
2022-10-16T07:12:17.767Z,101074.97
2022-10-16T07:14:46.548Z,101084.09
2022-10-16T07:17:16.227Z,101102.94
2022-10-16T07:19:44.464Z,101092.59
2022-10-16T07:22:12.811Z,101079.75
2022-10-16T07:24:41.067Z,101110.81
2022-10-16T07:27:09.492Z,101115.50
2022-10-16T07:29:37.889Z,101020.28
2022-10-16T07:32:06.622Z,101121.31
2022-10-16T07:34:36.319Z,101131.72
2022-10-16T07:37:04.658Z,101140.28
2022-10-16T07:39:32.969Z,101133.41
2022-10-16T07:42:01.268Z,101150.34
2022-10-16T07:44:29.665Z,101163.75
2022-10-16T07:46:58.628Z,101157.91
2022-10-16T07:49:26.925Z,101166.53
2022-10-16T07:51:56.563Z,101156.06
2022-10-16T07:54:24.905Z,101169.78
2022-10-16T07:56:53.180Z,101141.00
2022-10-16T07:59:21.494Z,101179.88
2022-10-16T08:01:51.543Z,101167.19
2022-10-16T08:04:19.934Z,101191.16
2022-10-16T08:06:48.242Z,101182.28
2022-10-16T08:09:18.230Z,101194.97
2022-10-16T08:11:46.555Z,101198.16
2022-10-16T08:14:14.819Z,101211.59
2022-10-16T08:16:43.239Z,101208.63
2022-10-16T08:19:11.492Z,101213.97
2022-10-16T08:21:39.808Z,101223.72
2022-10-16T08:24:08.154Z,101226.97
2022-10-16T08:26:37.851Z,101231.84
2022-10-16T08:29:06.392Z,101228.34
2022-10-16T08:31:34.992Z,101236.16
2022-10-16T08:34:03.565Z,101241.75
2022-10-16T08:36:31.917Z,101251.19
2022-10-16T08:39:00.208Z,101248.78
2022-10-16T08:42:01.308Z,101262.03
2022-10-16T08:45:17.754Z,101262.53
2022-10-16T08:47:52.238Z,101273.41
2022-10-16T08:50:28.022Z,101277.41
2022-10-16T08:52:57.925Z,101276.88
2022-10-16T08:55:35.296Z,101150.78
2022-10-16T08:58:13.352Z,101284.13
2022-10-16T09:00:42.031Z,101268.69
2022-10-16T09:03:20.202Z,101294.22
2022-10-16T09:06:02.710Z,101298.31
2022-10-16T09:08:41.806Z,101292.47
2022-10-16T09:11:18.763Z,101284.22
2022-10-16T09:13:58.263Z,101297.84
2022-10-16T09:16:32.005Z,101303.16
2022-10-16T09:19:08.122Z,101300.88
2022-10-16T09:21:41.510Z,101292.28
2022-10-16T09:24:16.635Z,101312.75
2022-10-16T09:26:45.600Z,101310.94
2022-10-16T09:29:15.958Z,101309.91
2022-10-16T09:31:45.189Z,101270.25
2022-10-16T09:34:27.379Z,101305.75
2022-10-16T09:36:56.141Z,101314.50
2022-10-16T09:39:24.399Z,101312.69
2022-10-16T09:41:53.583Z,101300.88
2022-10-16T09:44:28.814Z,101316.06
2022-10-16T09:47:05.239Z,101323.31
2022-10-16T09:49:35.019Z,101314.28
2022-10-16T09:52:08.029Z,101319.50
2022-10-16T09:54:36.352Z,101324.13
2022-10-16T09:57:09.176Z,101323.34
2022-10-16T09:59:49.550Z,101236.41
2022-10-16T10:02:19.992Z,101326.13
2022-10-16T10:04:55.172Z,101336.25
2022-10-16T10:07:28.586Z,101330.34
2022-10-16T10:09:58.952Z,101327.69
2022-10-16T10:12:30.240Z,101321.97
2022-10-16T10:15:06.609Z,101307.31
2022-10-16T10:17:35.404Z,101323.41
2022-10-16T10:20:23.951Z,101339.13
2022-10-16T10:22:52.381Z,101344.19
2022-10-16T10:25:41.349Z,101339.75
2022-10-16T10:28:39.387Z,101350.31
2022-10-16T10:31:17.859Z,101357.78
2022-10-16T10:33:51.694Z,101350.78
2022-10-16T10:36:31.489Z,101356.09
2022-10-16T10:39:03.826Z,101352.00
2022-10-16T10:42:18.311Z,101361.78
2022-10-16T10:45:13.681Z,101369.66
2022-10-16T10:47:57.679Z,101350.41
2022-10-16T10:50:33.365Z,101378.59
2022-10-16T10:53:14.270Z,101375.97
2022-10-16T10:55:50.027Z,101303.09
2022-10-16T10:58:59.656Z,101383.28
2022-10-16T11:01:38.245Z,101381.38
2022-10-16T11:04:52.338Z,101394.09
2022-10-16T11:07:28.389Z,101396.72
2022-10-16T11:10:03.705Z,101401.72
2022-10-16T11:12:37.206Z,101412.13
2022-10-16T11:15:14.601Z,101404.50
2022-10-16T11:17:47.944Z,101390.16
2022-10-16T11:20:23.805Z,101390.34
2022-10-16T11:22:58.388Z,101353.47
2022-10-16T11:25:30.046Z,101413.28
2022-10-16T11:28:05.065Z,101417.19
2022-10-16T11:30:42.947Z,101415.22
2022-10-16T11:33:32.703Z,101412.81
2022-10-16T11:36:12.563Z,101409.88
2022-10-16T11:38:51.303Z,101411.88
2022-10-16T11:41:28.163Z,101406.88
2022-10-16T11:44:13.513Z,101405.31
2022-10-16T11:46:59.182Z,101415.09
2022-10-16T11:49:38.584Z,101429.69
2022-10-16T11:52:19.605Z,101416.59
2022-10-16T11:54:53.966Z,101423.50
2022-10-16T11:57:26.775Z,101429.44
2022-10-16T12:00:00.108Z,101419.34
2022-10-16T12:02:56.908Z,101380.22
2022-10-16T12:05:35.661Z,101431.78
2022-10-16T12:08:12.376Z,101438.50
2022-10-16T12:10:43.594Z,101424.59
2022-10-16T12:13:35.247Z,101439.72
2022-10-16T12:16:24.509Z,101419.13
2022-10-16T12:19:13.433Z,101433.34
2022-10-16T12:21:42.643Z,101422.56
2022-10-16T12:24:38.394Z,101442.69
2022-10-16T12:27:23.968Z,101437.50
2022-10-16T12:29:58.523Z,101451.16
2022-10-16T12:32:48.644Z,101436.78
2022-10-16T12:35:24.727Z,101450.88
2022-10-16T12:37:54.243Z,101449.59
2022-10-16T12:40:33.547Z,101447.00
2022-10-16T12:43:13.901Z,101440.81
2022-10-16T12:45:42.279Z,101450.59
2022-10-16T12:48:29.123Z,101454.78
2022-10-16T12:51:26.810Z,101441.81
2022-10-16T12:54:02.177Z,101412.53
2022-10-16T12:56:46.254Z,101451.72
2022-10-16T12:59:27.409Z,101447.03
2022-10-16T13:02:18.303Z,101381.97
2022-10-16T13:05:05.091Z,101452.22
2022-10-16T13:07:57.570Z,101436.44
2022-10-16T13:10:35.265Z,101458.31
2022-10-16T13:13:59.615Z,101466.59
2022-10-16T13:16:39.470Z,101461.88
2022-10-16T13:19:21.199Z,101448.34
2022-10-16T13:21:58.503Z,101467.25
2022-10-16T13:24:51.930Z,101452.81
2022-10-16T13:27:33.596Z,101407.03
2022-10-16T13:30:14.907Z,101462.72
2022-10-16T13:32:47.821Z,101479.41
2022-10-16T13:35:29.138Z,101462.38
2022-10-16T13:38:17.195Z,101474.84
2022-10-16T13:40:55.207Z,101446.72
2022-10-16T13:43:28.250Z,101470.53
2022-10-16T13:46:02.811Z,101484.50
2022-10-16T13:48:32.065Z,101479.03
2022-10-16T13:51:07.762Z,101454.94
2022-10-16T13:53:37.919Z,101452.00
2022-10-16T13:56:08.863Z,101439.41
2022-10-16T13:58:37.306Z,101456.13
2022-10-16T14:01:18.748Z,101457.66
2022-10-16T14:03:47.908Z,101459.19
2022-10-16T14:06:19.005Z,101450.25
2022-10-16T14:08:59.475Z,101432.13
2022-10-16T14:11:28.314Z,101470.25
2022-10-16T14:13:57.462Z,101462.25
2022-10-16T14:16:31.845Z,101470.41
2022-10-16T14:19:07.352Z,101440.78
2022-10-16T14:21:36.684Z,101453.19
2022-10-16T14:24:14.333Z,101471.34
2022-10-16T14:26:51.112Z,101494.00
2022-10-16T14:29:22.337Z,101431.31
2022-10-16T14:32:00.313Z,101458.78
2022-10-16T14:34:33.804Z,101434.09
2022-10-16T14:39:42.505Z,101449.59
2022-10-16T14:42:18.755Z,101457.78
2022-10-16T14:44:48.305Z,101457.69
2022-10-16T14:47:23.432Z,101459.31
2022-10-16T14:49:51.854Z,101471.59
2022-10-16T14:52:20.495Z,101451.25
2022-10-16T14:54:51.254Z,101459.94
2022-10-16T14:57:21.010Z,101421.53
2022-10-16T14:59:52.142Z,101457.16
2022-10-16T15:02:30.478Z,101062.75
2022-10-16T15:07:28.326Z,101460.41
2022-10-16T15:09:58.015Z,101457.41
2022-10-16T15:12:26.284Z,101456.81
2022-10-16T15:14:54.619Z,101438.97
2022-10-16T15:17:24.450Z,101447.09
2022-10-16T15:19:53.052Z,101455.13
2022-10-16T15:22:24.250Z,101446.97
2022-10-16T15:24:52.575Z,101445.47
2022-10-16T15:27:20.823Z,101425.94
2022-10-16T15:29:49.195Z,101433.59
2022-10-16T15:32:17.764Z,101445.91
2022-10-16T15:34:47.390Z,101436.53
2022-10-16T15:37:15.691Z,101445.28
2022-10-16T15:39:44.052Z,101446.50
2022-10-16T15:42:12.319Z,101425.84
2022-10-16T15:44:40.615Z,101442.41
2022-10-16T15:47:10.170Z,101442.59
2022-10-16T15:49:38.396Z,101415.28
2022-10-16T15:52:08.090Z,101419.56
2022-10-16T15:54:37.813Z,101442.22
2022-10-16T15:57:06.185Z,101345.16
2022-10-16T15:59:34.494Z,101432.13
2022-10-16T16:02:02.904Z,101412.44
2022-10-16T16:04:43.564Z,101422.63
2022-10-16T16:07:13.978Z,101415.34
2022-10-16T16:09:42.560Z,101424.66
2022-10-16T16:12:10.799Z,101431.69
2022-10-16T16:14:39.145Z,101424.66
2022-10-16T16:17:07.485Z,101429.28
2022-10-16T16:19:35.863Z,101437.19
2022-10-16T16:22:06.975Z,101443.53
2022-10-16T16:24:39.033Z,101441.31
2022-10-16T16:27:07.957Z,101457.16
2022-10-16T16:29:36.582Z,101467.47
2022-10-16T16:32:05.370Z,101444.78
2022-10-16T16:34:33.639Z,101461.94
2022-10-16T16:37:02.097Z,101470.25
2022-10-16T16:39:30.436Z,101462.63
2022-10-16T16:42:00.436Z,101449.13
2022-10-16T16:44:28.821Z,101442.31
2022-10-16T16:46:57.164Z,101436.78
2022-10-16T16:49:25.561Z,101435.16
2022-10-16T16:51:55.957Z,101443.19
2022-10-16T16:54:24.518Z,101447.56
2022-10-16T16:56:52.924Z,101443.81
2022-10-16T16:59:23.500Z,101451.69
2022-10-16T17:01:56.604Z,101457.75
2022-10-16T17:04:25.828Z,101460.06
2022-10-16T17:06:55.318Z,101460.53
2022-10-16T17:09:24.283Z,101340.53
2022-10-16T17:11:52.605Z,101464.41
2022-10-16T17:14:22.295Z,101460.53
2022-10-16T17:16:50.859Z,101481.63
2022-10-16T17:19:21.489Z,101473.75
2022-10-16T17:21:50.892Z,101467.94
2022-10-16T17:24:21.069Z,101480.97
2022-10-16T17:26:50.087Z,101488.97
2022-10-16T17:29:19.361Z,101482.94
2022-10-16T17:31:50.476Z,101483.47
2022-10-16T17:34:19.596Z,101487.75
2022-10-16T17:36:48.127Z,101469.50
2022-10-16T17:39:19.106Z,101480.47
2022-10-16T17:41:48.993Z,101483.22
2022-10-16T17:44:20.933Z,101470.34
2022-10-16T17:46:53.664Z,101466.34
2022-10-16T17:49:22.619Z,101461.97
2022-10-16T17:51:53.044Z,101479.44
2022-10-16T17:54:22.101Z,101455.81
2022-10-16T17:56:50.596Z,101491.88
2022-10-16T17:59:22.876Z,101490.38
2022-10-16T18:01:52.740Z,101501.25
2022-10-16T18:04:21.128Z,101516.06
2022-10-16T18:06:49.501Z,101504.31
2022-10-16T18:09:20.863Z,101498.22
2022-10-16T18:11:52.478Z,101509.66
2022-10-16T18:14:20.962Z,101508.91
2022-10-16T18:19:20.990Z,101518.72
2022-10-16T18:21:49.519Z,101520.56
2022-10-16T18:24:18.752Z,101518.03
2022-10-16T18:26:47.163Z,101520.03
2022-10-16T18:29:15.463Z,101498.84
2022-10-16T18:31:43.834Z,101506.84
2022-10-16T18:34:12.470Z,101479.94
2022-10-16T18:36:43.010Z,101514.50
2022-10-16T18:39:13.008Z,101510.00
2022-10-16T18:41:44.706Z,101512.50
2022-10-16T18:44:13.905Z,101503.19
2022-10-16T18:46:42.653Z,101494.88
2022-10-16T18:49:11.442Z,101475.66
2022-10-16T18:51:44.034Z,101521.16
2022-10-16T18:54:14.018Z,101517.69
2022-10-16T18:56:42.392Z,101551.72
2022-10-16T18:59:11.812Z,101520.72
2022-10-16T19:01:40.895Z,101488.84
2022-10-16T19:04:12.482Z,101415.72
2022-10-16T19:06:44.820Z,101395.66
2022-10-16T19:09:15.037Z,101392.28
2022-10-16T19:11:44.502Z,101513.03
2022-10-16T19:14:13.820Z,101512.94
2022-10-16T19:16:43.471Z,101515.47
2022-10-16T19:19:18.649Z,101514.53
2022-10-16T19:21:51.210Z,101514.47
2022-10-16T19:24:19.562Z,101504.94
2022-10-16T19:26:48.662Z,101502.66
2022-10-16T19:29:17.176Z,101471.91
2022-10-16T19:31:45.449Z,101474.56
2022-10-16T19:34:13.766Z,101461.41
2022-10-16T19:36:42.423Z,101449.00
2022-10-16T19:39:17.228Z,101438.44
2022-10-16T19:41:47.441Z,101338.81
2022-10-16T19:44:17.918Z,101458.59
2022-10-16T19:46:48.119Z,101456.63
2022-10-16T19:49:21.646Z,101439.72
2022-10-16T19:51:51.792Z,101459.13
2022-10-16T19:54:21.849Z,101433.75
2022-10-16T19:56:50.233Z,101395.25
2022-10-16T19:59:20.216Z,101449.72
2022-10-16T20:01:49.132Z,101463.22
2022-10-16T20:04:17.824Z,101365.47
2022-10-16T20:06:46.309Z,101460.75
2022-10-16T20:09:15.211Z,101474.09
2022-10-16T20:11:45.003Z,101471.41
2022-10-16T20:14:13.328Z,101471.34
2022-10-16T20:16:41.660Z,101473.88
2022-10-16T20:19:10.854Z,101471.97
2022-10-16T20:21:39.159Z,101430.44
2022-10-16T20:24:08.840Z,101471.59
2022-10-16T20:26:38.239Z,101466.25
2022-10-16T20:29:08.364Z,101469.41
2022-10-16T20:31:36.962Z,101470.38
2022-10-16T20:34:08.118Z,101481.94
2022-10-16T20:36:38.219Z,101470.34
2022-10-16T20:39:08.252Z,101471.22
2022-10-16T20:41:37.388Z,101471.13
2022-10-16T20:44:07.747Z,101484.34
2022-10-16T20:46:36.123Z,101455.25
2022-10-16T20:49:11.181Z,101470.88
2022-10-16T20:51:39.973Z,101463.81
2022-10-16T20:54:08.775Z,101434.69
2022-10-16T20:56:38.559Z,101448.91
2022-10-16T20:59:08.519Z,101443.63
2022-10-16T21:01:37.441Z,101454.94
2022-10-16T21:04:08.585Z,101448.78
2022-10-16T21:06:39.995Z,101449.44
2022-10-16T21:09:09.245Z,101433.75
2022-10-16T21:11:38.858Z,101457.31
2022-10-16T21:14:10.372Z,101429.09
2022-10-16T21:16:38.833Z,101435.16
2022-10-16T21:19:07.665Z,101457.00
2022-10-16T21:21:38.890Z,101446.59
2022-10-16T21:24:12.138Z,101434.03
2022-10-16T21:26:43.593Z,101428.88
2022-10-16T21:29:13.818Z,101404.09
2022-10-16T21:31:42.575Z,101430.56
2022-10-16T21:34:11.070Z,101432.34
2022-10-16T21:36:42.374Z,101427.03
2022-10-16T21:39:14.064Z,101421.78
2022-10-16T21:41:47.032Z,101421.94
2022-10-16T21:44:17.487Z,101421.28
2022-10-16T21:46:46.344Z,101359.66
2022-10-16T21:49:16.947Z,101421.16
2022-10-16T21:51:47.279Z,101435.25
2022-10-16T21:54:18.395Z,101417.63
2022-10-16T21:56:46.822Z,101444.72
2022-10-16T21:59:17.256Z,101453.88
2022-10-16T22:01:46.031Z,101450.88
2022-10-16T22:04:16.480Z,101340.91
2022-10-16T22:06:44.975Z,101420.81
2022-10-16T22:09:14.745Z,101425.34
2022-10-16T22:11:45.437Z,101422.66
2022-10-16T22:14:16.739Z,101353.16
2022-10-16T22:16:45.735Z,101419.16
2022-10-16T22:19:15.303Z,101398.88
2022-10-16T22:21:45.997Z,101388.38
2022-10-16T22:24:14.704Z,101409.59
2022-10-16T22:26:43.030Z,101417.66
2022-10-16T22:29:14.677Z,101420.03
2022-10-16T22:31:45.364Z,101385.75
2022-10-16T22:34:14.788Z,101428.13
2022-10-16T22:36:43.094Z,101409.34
2022-10-16T22:39:11.987Z,101420.78
2022-10-16T22:41:40.265Z,101393.56
2022-10-16T22:44:13.526Z,101427.03
2022-10-16T22:46:43.264Z,101429.69
2022-10-16T22:49:12.030Z,101420.00
2022-10-16T22:51:40.427Z,101403.25
2022-10-16T22:54:08.829Z,101424.38
2022-10-16T22:56:37.081Z,101419.97
2022-10-16T22:59:05.823Z,101412.09
2022-10-16T23:01:37.171Z,101420.03
2022-10-16T23:04:07.679Z,101416.44
2022-10-16T23:06:36.277Z,101398.72
2022-10-16T23:09:05.171Z,101400.34
2022-10-16T23:11:34.412Z,101373.75
2022-10-16T23:14:02.804Z,101382.50
2022-10-16T23:16:31.181Z,101408.06
2022-10-16T23:19:00.250Z,101408.72
2022-10-16T23:21:30.091Z,101407.09
2022-10-16T23:23:59.043Z,101402.63
2022-10-16T23:26:28.775Z,101407.78
2022-10-16T23:28:58.661Z,101403.75
2022-10-16T23:31:27.337Z,101408.88
2022-10-16T23:33:56.806Z,101400.66
2022-10-16T23:36:25.794Z,101390.56
2022-10-16T23:38:55.858Z,101379.41
2022-10-16T23:41:24.150Z,101330.72
2022-10-16T23:43:52.517Z,101387.63
2022-10-16T23:53:09.392Z,101356.38
2022-10-16T23:55:40.274Z,101381.63
2022-10-16T23:58:08.683Z,101369.41
